Latest Weather Observations for White Cliffs AWS

IDN60801

Issued at 8:02 am EST Saturday 24 August 2019 (issued every 10 minutes, with the page automatically refreshed every 10 minutes)

About weather observations | Map of weather stations | Latest weather observations for NSW | Other Formats
Station Details ID: 046129 Name: WHITE CLIFFS AWS Lat: -30.85 Lon: 143.07 Height: 158.0 m
Data from the previous 72 hours. | See also: Recent months at White Cliffs AWS
Date/Time
EST
Temp
°C
App
Temp
°C
Dew
Point
°C
Rel
Hum
%
Delta-T
°C
Wind Press
QNH
hPa
Press
MSL
hPa
Rain since
9am
mm
Dir  Spd
km/h
Gust
km/h
Spd
kts
Gust
kts
24/08:00am 7.5 2.7 -6.2 37 4.6 NW 11 11 6 6 1020.6 1020.6 0.0
24/07:30am 6.0 1.6 -6.2 41 4.1 NW 9 11 5 6 1020.5 1020.5 0.0
24/07:00am 5.0 0.5 -6.5 43 3.7 NW 9 9 5 5 1020.3 1020.3 0.0
24/06:30am 5.3 0.0 -6.9 41 3.9 N 13 15 7 8 1020.1 1020.1 0.0
24/06:00am 6.2 1.0 -6.1 41 4.1 N 13 15 7 8 1019.7 1019.7 0.0
24/05:30am 5.7 1.2 -6.5 41 4.0 N 9 11 5 6 1019.6 1019.6 0.0
24/05:00am 5.9 2.1 -6.0 42 4.0 NNW 6 7 3 4 1019.6 1019.6 0.0
24/04:30am 7.1 3.2 -4.9 42 4.2 N 7 11 4 6 1019.5 1019.5 0.0
24/04:00am 7.4 2.2 -6.0 38 4.5 NNE 13 15 7 8 1019.6 1019.6 0.0
24/03:30am 9.3 5.4 -4.6 37 5.0 NNE 7 9 4 5 1019.8 1019.8 0.0
24/03:00am 9.3 5.4 -4.6 37 5.0 ENE 7 7 4 4 1020.1 1020.1 0.0
24/02:30am 10.2 6.3 -4.2 36 5.3 ENE 7 9 4 5 1020.3 1020.3 0.0
24/02:00am 10.1 6.5 -3.6 38 5.1 NE 6 9 3 5 1020.6 1020.6 0.0
24/01:30am 11.0 7.2 -3.8 35 5.6 NE 7 9 4 5 1021.1 1021.1 0.0
24/01:00am 10.6 8.1 -3.8 36 5.4 CALM 0 0 0 0 1021.4 1021.4 0.0
24/12:30am 11.0 7.4 -3.8 35 5.6 ENE 6 7 3 4 1021.7 1021.7 0.0
24/12:00am 10.8 7.2 -4.0 35 5.5 ENE 6 7 3 4 1021.8 1021.8 0.0
 
Date/Time
EST
Temp
°C
App
Temp
°C
Dew
Point
°C
Rel
Hum
%
Delta-T
°C
Wind Press
QNH
hPa
Press
MSL
hPa
Rain since
9am
mm
Dir  Spd
km/h
Gust
km/h
Spd
kts
Gust
kts
23/11:30pm 11.5 7.7 -3.8 34 5.8 E 7 9 4 5 1021.8 1021.8 0.0
23/11:00pm 11.5 7.3 -4.2 33 5.8 E 9 11 5 6 1022.0 1022.0 0.0
23/10:30pm 11.6 7.4 -4.1 33 5.9 ENE 9 13 5 7 1022.1 1022.1 0.0
23/10:00pm 12.2 8.0 -4.0 32 6.1 NE 9 13 5 7 1022.3 1022.3 0.0
23/09:30pm 11.9 7.3 -4.2 32 6.0 ENE 11 13 6 7 1022.3 1022.3 0.0
23/09:00pm 12.3 7.6 -4.8 30 6.3 E 11 13 6 7 1022.7 1022.7 0.0
23/08:30pm 14.1 9.9 -3.6 29 6.9 ESE 9 11 5 6 1023.0 1023.0 0.0
23/08:00pm 14.1 9.4 -4.6 27 7.1 SE 11 11 6 6 1023.0 1023.0 0.0
23/07:30pm 15.1 10.5 -3.7 27 7.4 ESE 11 13 6 7 1022.5 1022.5 0.0
23/07:00pm 15.9 11.4 -3.6 26 7.7 SE 11 13 6 7 1022.4 1022.4 0.0
23/06:30pm 16.9 12.7 -3.8 24 8.3 SSE 9 11 5 6 1022.1 1022.1 0.0
23/06:00pm 18.0 13.9 -3.4 23 8.7 ESE 9 11 5 6 1021.7 1021.7 0.0
23/05:30pm 18.8 14.7 -3.3 22 9.1 E 9 11 5 6 1021.6 1021.6 0.0
23/05:00pm 19.0 14.9 -3.2 22 9.1 ESE 9 13 5 7 1021.6 1021.6 0.0
23/04:30pm 18.8 15.3 -2.7 23 9.0 SE 6 11 3 6 1021.5 1021.5 0.0
23/04:00pm 19.4 15.7 -2.8 22 9.3 E 7 13 4 7 1021.7 1021.7 0.0
23/03:30pm 19.6 14.9 -2.1 23 9.2 ESE 13 20 7 11 1021.9 1021.9 0.0
23/03:00pm 18.7 13.8 -3.4 22 9.0 ENE 13 19 7 10 1022.3 1022.3 0.0
23/02:30pm 18.4 13.9 -3.1 23 8.9 ESE 11 15 6 8 1022.5 1022.5 0.0
23/02:00pm 18.0 13.2 -2.3 25 8.4 ESE 13 19 7 10 1023.2 1023.1 0.0
23/01:30pm 17.6 13.3 -1.6 27 8.1 ENE 11 17 6 9 1023.7 1023.6 0.0
23/01:00pm 16.3 11.9 -2.2 28 7.6 ENE 11 19 6 10 1024.3 1024.3 0.0
23/12:30pm 17.4 12.5 -0.3 30 7.7 E 15 26 8 14 1025.0 1025.0 0.0
23/12:00pm 16.0 11.4 -0.7 32 7.0 E 13 22 7 12 1025.8 1025.8 0.0
23/11:30am 15.3 10.5 -0.1 35 6.6 E 15 22 8 12 1026.3 1026.3 0.0
23/11:00am 14.2 8.8 1.2 41 5.6 ESE 19 26 10 14 1026.7 1026.7 0.0
23/10:30am 13.9 8.4 1.9 44 5.3 ESE 20 26 11 14 1027.1 1027.1 0.0
23/10:00am 13.4 9.0 2.6 48 4.8 E 15 19 8 10 1027.4 1027.4 0.0
23/09:30am 11.9 7.4 2.1 51 4.2 E 15 19 8 10 1027.4 1027.4 0.0
23/09:00am 11.3 6.8 2.3 54 3.9 ESE 15 20 8 11 1027.3 1027.3 0.0
23/08:30am 10.2 5.8 2.6 59 3.3 ESE 15 20 8 11 1027.1 1027.1 0.0
23/08:00am 8.4 6.7 1.8 63 2.7 CALM 0 6 0 3 1027.2 1027.2 0.0
23/07:30am 7.4 5.0 1.9 68 2.3 E 4 9 2 5 1026.8 1026.8 0.0
23/07:00am 7.9 4.2 2.2 67 2.4 ESE 11 15 6 8 1026.5 1026.5 0.0
23/06:30am 7.9 3.4 2.0 66 2.5 SSE 15 17 8 9 1026.3 1026.3 0.0
23/06:00am 9.2 4.4 2.5 63 2.8 SE 17 20 9 11 1025.7 1025.7 0.0
23/05:30am 9.1 4.8 3.3 67 2.5 SSE 15 20 8 11 1025.4 1025.4 0.0
23/05:00am 8.2 3.5 2.9 69 2.2 SSE 17 20 9 11 1025.2 1025.2 0.0
23/04:30am 8.7 3.6 3.1 68 2.4 SSE 19 22 10 12 1025.2 1025.2 0.0
23/04:00am 9.5 4.5 3.5 66 2.6 SSE 19 22 10 12 1025.3 1025.3 0.0
23/03:30am 9.6 4.6 3.4 65 2.7 S 19 24 10 13 1025.2 1025.2 0.0
23/03:00am 9.8 5.2 3.5 65 2.7 S 17 22 9 12 1025.1 1025.1 0.0
23/02:30am 9.1 4.4 2.9 65 2.7 S 17 19 9 10 1025.2 1025.2 0.0
23/02:00am 9.3 4.9 2.9 64 2.7 S 15 15 8 8 1025.4 1025.4 0.0
23/01:30am 8.9 4.8 2.5 64 2.7 S 13 15 7 8 1025.5 1025.5 0.0
23/01:00am 9.4 5.3 2.5 62 2.9 SSW 13 15 7 8 1025.7 1025.7 0.0
23/12:30am 10.4 6.4 3.0 60 3.2 S 13 15 7 8 1025.6 1025.6 0.0
23/12:00am 11.4 6.4 3.4 58 3.5 S 19 22 10 12 1025.5 1025.5 0.0
 
Date/Time
EST
Temp
°C
App
Temp
°C
Dew
Point
°C
Rel
Hum
%
Delta-T
°C
Wind Press
QNH
hPa
Press
MSL
hPa
Rain since
9am
mm
Dir  Spd
km/h
Gust
km/h
Spd
kts
Gust
kts
22/11:30pm 11.4 7.1 3.2 57 3.6 S 15 17 8 9 1025.5 1025.5 0.0
22/11:00pm 11.4 7.4 2.9 56 3.7 S 13 15 7 8 1025.7 1025.7 0.0
22/10:30pm 11.4 7.3 2.4 54 3.9 SSW 13 17 7 9 1025.8 1025.8 0.0
22/10:00pm 12.9 8.3 3.8 54 4.1 SSW 17 22 9 12 1025.8 1025.8 0.0
22/09:30pm 12.5 8.5 2.9 52 4.3 S 13 15 7 8 1025.8 1025.8 0.0
22/09:00pm 13.1 9.2 3.2 51 4.4 SSW 13 17 7 9 1025.7 1025.7 0.0
22/08:30pm 13.2 9.6 3.0 50 4.6 SSW 11 13 6 7 1025.5 1025.5 0.0
22/08:00pm 14.3 10.4 3.5 48 4.9 S 13 15 7 8 1025.4 1025.4 0.0
22/07:30pm 15.0 11.1 3.5 46 5.3 S 13 17 7 9 1025.3 1025.3 0.0
22/07:00pm 15.7 11.4 3.5 44 5.6 S 15 17 8 9 1025.2 1025.2 0.0
22/06:30pm 16.5 11.6 3.9 43 5.9 S 19 20 10 11 1024.9 1024.9 0.0
22/06:00pm 17.3 11.8 3.9 41 6.3 S 22 28 12 15 1024.8 1024.8 0.0
22/05:30pm 17.9 11.6 3.8 39 6.7 SSW 26 32 14 17 1024.4 1024.4 0.0
22/05:00pm 18.4 12.4 3.5 37 7.0 SSW 24 32 13 17 1024.3 1024.3 0.0
22/04:30pm 18.6 12.2 3.3 36 7.2 S 26 37 14 20 1024.3 1024.3 0.0
22/04:00pm 18.9 13.8 4.3 38 7.0 SSW 20 32 11 17 1024.1 1024.1 0.0
22/03:30pm 18.2 13.2 4.4 40 6.6 SSW 20 30 11 16 1024.2 1024.2 0.0
22/03:00pm 18.5 13.5 4.7 40 6.6 SW 20 28 11 15 1024.5 1024.5 0.0
22/02:30pm 18.5 13.6 5.0 41 6.6 SSW 20 30 11 16 1024.8 1024.8 0.0
22/02:00pm 18.5 13.6 5.0 41 6.5 SSW 20 35 11 19 1025.1 1025.1 0.0
22/01:30pm 16.9 12.4 4.3 43 6.0 SSW 17 24 9 13 1025.4 1025.4 0.0
22/01:00pm 16.8 11.0 4.2 43 5.9 S 24 32 13 17 1025.8 1025.8 0.0
22/12:30pm 17.0 10.9 5.0 45 5.8 S 26 35 14 19 1026.3 1026.3 0.0
22/12:00pm 16.3 11.4 5.0 47 5.4 S 20 39 11 21 1026.7 1026.7 0.0
22/11:30am 15.8 9.8 5.1 49 5.1 SSW 26 35 14 19 1027.2 1027.2 0.0
22/11:00am 15.5 9.7 6.2 54 4.5 S 26 32 14 17 1027.6 1027.6 0.0
22/10:30am 15.3 9.1 6.1 54 4.5 S 28 35 15 19 1027.8 1027.8 0.0
22/10:00am 14.0 8.3 6.6 61 3.6 SSW 26 35 14 19 1027.8 1027.8 0.0
22/09:30am 13.3 7.3 6.9 65 3.1 SSW 28 33 15 18 1027.7 1027.7 0.0
22/09:00am 12.3 5.5 7.0 70 2.5 SSW 32 39 17 21 1027.5 1027.5 0.0
22/08:30am 11.8 6.3 7.5 75 2.1 SSW 26 37 14 20 1027.3 1027.3 0.0
22/08:00am 10.8 7.7 7.3 79 1.7 SW 13 17 7 9 1027.0 1027.0 0.0
22/07:30am 9.4 6.4 6.1 80 1.5 SSW 11 15 6 8 1026.6 1026.6 0.0
22/07:00am 9.4 5.4 6.5 82 1.3 SSW 17 20 9 11 1026.1 1026.1 0.0
22/06:30am 8.5 4.8 4.7 77 1.7 SW 13 15 7 8 1025.8 1025.8 0.0
22/06:00am 9.2 5.4 5.8 79 1.6 SSW 15 17 8 9 1025.7 1025.7 0.0
22/05:30am 8.6 4.7 3.4 70 2.3 SSW 13 15 7 8 1025.4 1025.4 0.0
22/05:00am 8.6 5.0 3.2 69 2.3 SSW 11 13 6 7 1025.3 1025.3 0.0
22/04:30am 9.0 5.8 2.8 65 2.7 SSW 9 9 5 5 1025.0 1025.0 0.0
22/04:00am 10.7 7.0 4.2 64 2.9 S 13 15 7 8 1025.0 1025.0 0.0
22/03:30am 11.4 7.3 4.6 63 3.1 S 15 19 8 10 1024.9 1024.9 0.0
22/03:00am 11.5 7.7 4.0 60 3.4 S 13 17 7 9 1025.2 1025.2 0.0
22/02:30am 11.9 7.6 3.4 56 3.8 SSW 15 19 8 10 1025.3 1025.3 0.0
22/02:00am 11.6 7.9 2.4 53 4.0 SSW 11 13 6 7 1025.4 1025.4 0.0
22/01:30am 12.2 8.9 2.4 51 4.3 SSW 9 11 5 6 1025.3 1025.3 0.0
22/01:00am 12.8 9.4 2.1 48 4.6 SSW 9 11 5 6 1025.4 1025.4 0.0
22/12:30am 13.3 10.0 2.5 48 4.8 SSW 9 13 5 7 1025.4 1025.4 0.0
22/12:00am 13.8 9.8 2.7 47 4.9 SSW 13 13 7 7 1025.4 1025.4 0.0
 
Date/Time
EST
Temp
°C
App
Temp
°C
Dew
Point
°C
Rel
Hum
%
Delta-T
°C
Wind Press
QNH
hPa
Press
MSL
hPa
Rain since
9am
mm
Dir  Spd
km/h
Gust
km/h
Spd
kts
Gust
kts
21/11:30pm 13.3 9.2 2.2 47 4.9 SSW 13 17 7 9 1025.5 1025.5 0.0
21/11:00pm 12.9 9.5 1.9 47 4.8 SSW 9 11 5 6 1025.5 1025.5 0.0
21/10:30pm 12.9 10.1 1.9 47 4.8 WSW 6 7 3 4 1025.5 1025.5 0.0
21/10:00pm 13.8 10.6 3.3 49 4.7 SW 9 9 5 5 1025.6 1025.6 0.0
21/09:30pm 14.1 10.9 3.0 47 5.0 SSW 9 9 5 5 1025.6 1025.6 0.0
21/09:00pm 14.0 10.7 2.6 46 5.1 SSW 9 9 5 5 1025.7 1025.7 0.0
21/08:30pm 14.3 10.2 2.2 44 5.4 SSW 13 13 7 7 1025.6 1025.6 0.0
21/08:00pm 14.9 11.2 2.1 42 5.7 SSW 11 11 6 6 1025.6 1025.6 0.0
21/07:30pm 16.4 11.6 2.8 40 6.2 SW 17 19 9 10 1025.6 1025.6 0.0
21/07:00pm 17.0 11.9 3.0 39 6.4 SW 19 20 10 11 1025.4 1025.4 0.0
21/06:30pm 17.7 12.6 2.8 37 6.9 SW 19 20 10 11 1025.3 1025.3 0.0
21/06:00pm 18.7 13.6 3.3 36 7.2 SW 19 24 10 13 1025.0 1025.0 0.0
21/05:30pm 19.2 13.2 3.4 35 7.5 SW 24 33 13 18 1024.9 1024.9 0.0
21/05:00pm 19.4 13.8 3.2 34 7.6 SW 22 32 12 17 1024.7 1024.7 0.0
21/04:30pm 20.1 14.0 2.9 32 8.1 SW 24 32 13 17 1024.7 1024.7 0.0
21/04:00pm 20.3 15.0 3.1 32 8.1 SW 20 30 11 16 1024.7 1024.7 0.0
21/03:30pm 20.5 14.8 2.8 31 8.4 SSW 22 30 12 16 1025.1 1025.1 0.0
21/03:00pm 20.3 14.7 3.5 33 8.0 SW 22 32 12 17 1025.3 1025.3 0.0
21/02:30pm 19.4 14.3 3.2 34 7.7 SW 19 26 10 14 1025.5 1025.5 0.0
21/02:00pm 19.1 13.2 3.7 36 7.3 S 24 32 13 17 1025.8 1025.8 0.0
21/01:30pm 19.0 13.8 3.6 36 7.3 SSW 20 30 11 16 1026.3 1026.3 0.0
21/01:00pm 18.3 13.3 4.8 41 6.5 SSW 20 28 11 15 1026.7 1026.7 0.0
21/12:30pm 17.7 12.5 5.3 44 6.0 SSW 22 33 12 18 1027.2 1027.2 0.0
21/12:00pm 17.0 11.4 5.3 46 5.6 SSW 24 32 13 17 1027.7 1027.7 0.0
21/11:30am 16.3 10.0 5.6 49 5.2 SSW 28 35 15 19 1028.2 1028.2 0.0
21/11:00am 15.4 9.1 5.6 52 4.7 SW 28 33 15 18 1028.5 1028.5 0.0
21/10:30am 14.7 8.4 5.5 54 4.4 SSW 28 35 15 19 1028.8 1028.8 0.0
21/10:00am 14.0 7.2 5.1 55 4.2 SSW 30 35 16 19 1028.8 1028.8 0.0
21/09:30am 13.1 6.6 4.8 57 3.9 SSW 28 35 15 19 1028.9 1028.9 0.0
21/09:00am 12.4 7.6 4.6 59 3.6 SW 19 24 10 13 1028.9 1028.9 0.0
21/08:30am 10.3 6.9 4.0 65 2.8 SW 11 15 6 8 1028.9 1028.9 0.0

Other formats

Comma delimited format used in spreadsheet applications
http://www.bom.gov.au/fwo/IDN60801/IDN60801.95699.axf

JavaScript Object Notation format (JSON) in row-major order
http://www.bom.gov.au/fwo/IDN60801/IDN60801.95699.json

Data quality

Most of these data are generated automatically and are frequently updated. Quality checks on data are not normally performed. It is possible for incorrect values to appear. Refer to information at About Latest Weather Observations and please check the disclaimer before using these data.